createdAt,value
2023-04-14T00:02:13.514Z,4.80
2023-04-14T00:04:42.363Z,4.78
2023-04-14T00:07:10.669Z,4.75
2023-04-14T00:09:39.881Z,4.72
2023-04-14T00:12:08.064Z,4.69
2023-04-14T00:14:36.665Z,4.66
2023-04-14T00:17:06.979Z,4.62
2023-04-14T00:19:35.615Z,4.61
2023-04-14T00:22:03.996Z,4.58
2023-04-14T00:24:40.827Z,4.55
2023-04-14T00:27:12.047Z,4.51
2023-04-14T00:29:40.640Z,4.46
2023-04-14T00:32:09.043Z,4.42
2023-04-14T00:34:37.675Z,4.38
2023-04-14T00:37:06.152Z,4.36
2023-04-14T00:39:35.037Z,4.32
2023-04-14T00:42:03.644Z,4.29
2023-04-14T00:44:31.923Z,4.25
2023-04-14T00:47:00.770Z,4.21
2023-04-14T00:49:29.721Z,4.18
2023-04-14T00:51:57.915Z,4.16
2023-04-14T00:54:26.618Z,4.14
2023-04-14T00:56:55.177Z,4.12
2023-04-14T00:59:23.600Z,4.08
2023-04-14T01:01:51.863Z,4.05
2023-04-14T01:04:21.622Z,4.03
2023-04-14T01:14:51.650Z,3.94
2023-04-14T01:17:43.977Z,3.88
2023-04-14T01:20:22.970Z,3.86
2023-04-14T01:22:55.689Z,3.82
2023-04-14T01:25:49.076Z,3.78
2023-04-14T01:28:29.488Z,3.75
2023-04-14T01:31:36.440Z,3.72
2023-04-14T01:34:11.943Z,3.69
2023-04-14T01:36:43.084Z,3.64
2023-04-14T01:39:16.278Z,3.60
2023-04-14T01:41:46.332Z,3.57
2023-04-14T01:44:15.908Z,3.54
2023-04-14T01:46:45.411Z,3.50
2023-04-14T01:49:13.793Z,3.46
2023-04-14T01:51:42.587Z,3.41
2023-04-14T01:54:11.043Z,3.38
2023-04-14T01:56:39.267Z,3.34
2023-04-14T01:59:10.048Z,3.32
2023-04-14T02:01:39.274Z,3.28
2023-04-14T02:04:08.372Z,3.24
2023-04-14T02:06:38.175Z,3.21
2023-04-14T02:09:10.418Z,3.17
2023-04-14T02:11:38.932Z,3.15
2023-04-14T02:14:07.407Z,3.13
2023-04-14T02:16:38.842Z,3.10
2023-04-14T02:19:08.144Z,3.08
2023-04-14T02:21:37.760Z,3.04
2023-04-14T02:24:08.179Z,2.99
2023-04-14T02:26:36.450Z,2.95
2023-04-14T02:29:15.574Z,2.93
2023-04-14T02:31:44.816Z,2.89
2023-04-14T02:34:23.711Z,2.87
2023-04-14T02:36:56.687Z,2.85
2023-04-14T02:39:31.829Z,2.84
2023-04-14T02:42:03.202Z,2.84
2023-04-14T02:44:34.633Z,2.83
2023-04-14T02:47:08.169Z,2.83
2023-04-14T02:49:42.850Z,2.82
2023-04-14T02:52:12.685Z,2.81
2023-04-14T02:54:42.990Z,2.79
2023-04-14T02:57:12.192Z,2.77
2023-04-14T02:59:43.132Z,2.74
2023-04-14T03:02:12.833Z,2.71
2023-04-14T03:04:45.914Z,2.69
2023-04-14T03:07:37.530Z,2.65
2023-04-14T03:10:06.852Z,2.62
2023-04-14T03:12:39.645Z,2.59
2023-04-14T03:15:09.161Z,2.56
2023-04-14T03:17:38.177Z,2.52
2023-04-14T03:20:13.771Z,2.50
2023-04-14T03:22:41.957Z,2.49
2023-04-14T03:25:12.590Z,2.47
2023-04-14T03:27:42.189Z,2.46
2023-04-14T03:30:11.404Z,2.46
2023-04-14T03:32:43.740Z,2.46
2023-04-14T03:35:15.051Z,2.45
2023-04-14T03:37:43.701Z,2.44
2023-04-14T03:40:13.703Z,2.42
2023-04-14T03:42:45.037Z,2.41
2023-04-14T03:45:14.260Z,2.42
2023-04-14T03:47:43.851Z,2.50
2023-04-14T03:50:13.345Z,2.67
2023-04-14T03:52:41.538Z,2.87
2023-04-14T03:55:12.531Z,3.07
2023-04-14T03:57:44.087Z,3.31
2023-04-14T04:00:15.368Z,3.60
2023-04-14T04:02:48.026Z,4.04
2023-04-14T04:05:16.778Z,4.55
2023-04-14T04:07:45.421Z,5.06
2023-04-14T04:10:15.139Z,5.54
2023-04-14T04:12:44.054Z,5.95
2023-04-14T04:15:20.754Z,6.41
2023-04-14T04:17:49.033Z,6.86
2023-04-14T04:20:18.577Z,7.30
2023-04-14T04:22:47.489Z,7.67
2023-04-14T04:25:15.943Z,8.01
2023-04-14T04:27:48.834Z,8.30
2023-04-14T04:30:17.245Z,8.55
2023-04-14T04:32:46.369Z,8.56
2023-04-14T04:35:14.430Z,8.39
2023-04-14T04:37:43.825Z,8.13
2023-04-14T04:40:12.398Z,7.84
2023-04-14T04:42:42.624Z,7.60
2023-04-14T04:45:12.717Z,7.35
2023-04-14T04:47:42.608Z,7.15
2023-04-14T04:50:11.296Z,6.98
2023-04-14T04:52:39.720Z,6.84
2023-04-14T04:55:08.149Z,6.74
2023-04-14T04:57:36.902Z,6.66
2023-04-14T05:00:06.462Z,6.61
2023-04-14T05:02:37.460Z,6.55
2023-04-14T05:05:06.251Z,6.50
2023-04-14T05:07:34.566Z,6.47
2023-04-14T05:10:06.029Z,6.45
2023-04-14T05:12:35.814Z,6.45
2023-04-14T05:15:04.590Z,6.49
2023-04-14T05:17:40.663Z,6.51
2023-04-14T05:20:10.719Z,6.52
2023-04-14T05:22:39.343Z,6.54
2023-04-14T05:25:08.157Z,6.60
2023-04-14T05:27:37.150Z,6.65
2023-04-14T05:30:06.165Z,6.72
2023-04-14T05:32:34.818Z,6.78
2023-04-14T05:35:03.565Z,6.85
2023-04-14T05:37:32.295Z,6.92
2023-04-14T05:40:01.491Z,6.99
2023-04-14T05:42:29.596Z,7.06
2023-04-14T05:44:59.243Z,7.13
2023-04-14T05:47:28.314Z,7.18
2023-04-14T05:49:56.408Z,7.24
2023-04-14T05:52:24.812Z,7.31
2023-04-14T05:54:54.057Z,7.39
2023-04-14T05:57:22.699Z,7.46
2023-04-14T05:59:51.105Z,7.54
2023-04-14T06:02:19.528Z,7.61
2023-04-14T06:04:49.127Z,7.68
2023-04-14T06:07:17.310Z,7.76
2023-04-14T06:09:59.363Z,7.86
2023-04-14T06:12:28.406Z,7.97
2023-04-14T06:14:57.082Z,8.08
2023-04-14T06:17:26.268Z,8.18
2023-04-14T06:19:56.444Z,8.29
2023-04-14T06:22:29.365Z,8.41
2023-04-14T06:24:57.664Z,8.54
2023-04-14T06:27:26.216Z,8.67
2023-04-14T06:29:54.914Z,8.81
2023-04-14T06:32:23.401Z,8.94
2023-04-14T06:35:05.173Z,9.10
2023-04-14T06:37:33.483Z,9.23
2023-04-14T06:40:01.551Z,9.36
2023-04-14T06:49:38.438Z,9.79
2023-04-14T06:59:42.105Z,10.16
2023-04-14T07:02:12.206Z,10.28
2023-04-14T07:04:40.692Z,10.42
2023-04-14T07:07:10.456Z,10.54
2023-04-14T07:09:43.704Z,10.68
2023-04-14T07:12:15.016Z,10.82
2023-04-14T07:14:43.275Z,10.96
2023-04-14T07:17:11.811Z,11.09
2023-04-14T07:19:40.253Z,11.22
2023-04-14T07:22:09.165Z,11.34
2023-04-14T07:24:38.429Z,11.46
2023-04-14T07:27:07.549Z,11.53
2023-04-14T07:29:35.618Z,11.64
2023-04-14T07:32:04.274Z,11.78
2023-04-14T07:34:33.398Z,11.92
2023-04-14T07:37:01.688Z,12.08
2023-04-14T07:39:30.496Z,12.26
2023-04-14T07:41:59.050Z,12.43
2023-04-14T07:44:31.510Z,12.59
2023-04-14T07:46:59.808Z,12.74
2023-04-14T07:49:27.991Z,12.87
2023-04-14T07:51:58.240Z,12.99
2023-04-14T07:54:26.568Z,13.11
2023-04-14T07:56:54.935Z,13.21
2023-04-14T07:59:23.437Z,13.30
2023-04-14T08:01:52.058Z,13.39
2023-04-14T08:04:20.668Z,13.48
2023-04-14T08:06:53.603Z,13.62
2023-04-14T08:09:22.325Z,13.75
2023-04-14T08:11:50.837Z,13.89
2023-04-14T08:14:19.223Z,14.05
2023-04-14T08:16:54.832Z,14.25
2023-04-14T08:19:23.105Z,14.42
2023-04-14T08:21:52.217Z,14.57
2023-04-14T08:24:20.519Z,14.72
2023-04-14T08:26:48.715Z,14.87
2023-04-14T08:29:17.098Z,15.02
2023-04-14T08:31:45.290Z,15.15
2023-04-14T08:34:13.407Z,15.25
2023-04-14T08:36:50.581Z,15.32
2023-04-14T08:39:24.086Z,15.40
2023-04-14T08:41:53.402Z,15.43
2023-04-14T08:44:21.882Z,15.43
2023-04-14T08:46:52.801Z,15.47
2023-04-14T08:49:39.865Z,15.57
2023-04-14T08:52:10.455Z,15.63
2023-04-14T08:54:40.414Z,15.67
2023-04-14T08:57:10.247Z,15.72
2023-04-14T08:59:41.627Z,15.77
2023-04-14T09:02:10.863Z,15.81
2023-04-14T09:04:39.485Z,15.89
2023-04-14T09:07:07.837Z,15.97
2023-04-14T09:09:38.907Z,16.06
2023-04-14T09:12:07.421Z,16.07
2023-04-14T09:14:36.218Z,16.07
2023-04-14T09:17:07.133Z,16.08
2023-04-14T09:19:36.657Z,16.06
2023-04-14T09:22:24.741Z,16.02
2023-04-14T09:24:54.804Z,15.99
2023-04-14T09:27:23.504Z,15.98
2023-04-14T09:29:52.653Z,15.97
2023-04-14T09:32:26.777Z,15.97
2023-04-14T09:34:57.772Z,15.95
2023-04-14T09:37:26.872Z,15.93
2023-04-14T09:39:58.169Z,15.96
2023-04-14T09:42:40.453Z,16.01
2023-04-14T09:45:09.595Z,16.04
2023-04-14T09:47:38.356Z,16.06
2023-04-14T09:50:07.474Z,16.11
2023-04-14T09:52:40.009Z,16.16
2023-04-14T09:55:12.818Z,16.16
2023-04-14T09:57:42.127Z,16.15
2023-04-14T10:00:24.223Z,16.13
2023-04-14T10:03:13.342Z,16.12
2023-04-14T10:05:48.000Z,16.13
2023-04-14T10:08:16.131Z,16.13
2023-04-14T10:10:44.302Z,16.10
2023-04-14T10:13:18.893Z,16.04
2023-04-14T10:15:47.341Z,15.98
2023-04-14T10:18:15.685Z,15.93
2023-04-14T10:20:44.442Z,15.93
2023-04-14T10:23:13.361Z,15.95
2023-04-14T10:25:41.878Z,15.98
2023-04-14T10:28:11.096Z,16.02
2023-04-14T10:30:41.260Z,16.03
2023-04-14T10:33:09.776Z,16.04
2023-04-14T10:35:40.849Z,16.02
2023-04-14T10:38:09.126Z,16.02
2023-04-14T10:40:57.029Z,16.09
2023-04-14T10:43:29.489Z,16.20
2023-04-14T10:46:00.739Z,16.33
2023-04-14T10:48:33.502Z,16.51
2023-04-14T10:51:02.959Z,16.69
2023-04-14T10:53:47.487Z,16.86
2023-04-14T10:56:15.770Z,17.03
2023-04-14T10:58:57.153Z,17.17
2023-04-14T11:01:28.576Z,17.27
2023-04-14T11:03:57.914Z,17.33
2023-04-14T11:06:53.225Z,17.40
2023-04-14T11:09:32.207Z,17.51
2023-04-14T11:12:23.824Z,17.63
2023-04-14T11:15:04.095Z,17.75
2023-04-14T11:17:34.160Z,17.81
2023-04-14T11:20:02.559Z,17.81
2023-04-14T11:22:43.742Z,17.77
2023-04-14T11:25:13.508Z,17.69
2023-04-14T11:27:41.968Z,17.64
2023-04-14T11:30:16.942Z,17.69
2023-04-14T11:32:53.436Z,17.76
2023-04-14T11:35:23.767Z,17.78
2023-04-14T11:37:56.346Z,17.78
2023-04-14T11:40:26.573Z,17.81
2023-04-14T11:42:57.112Z,17.86
2023-04-14T11:45:31.279Z,17.94
2023-04-14T11:48:04.568Z,18.08
2023-04-14T11:50:34.717Z,18.15
2023-04-14T11:53:07.394Z,18.17
2023-04-14T11:55:36.659Z,18.13
2023-04-14T11:58:04.853Z,18.03
2023-04-14T12:03:56.672Z,17.80
2023-04-14T12:06:27.184Z,17.74
2023-04-14T12:08:57.228Z,17.66
2023-04-14T12:11:27.596Z,17.62
2023-04-14T12:13:55.655Z,17.68
2023-04-14T12:16:23.920Z,17.79
2023-04-14T12:18:56.357Z,17.93
2023-04-14T12:21:24.560Z,18.03
2023-04-14T12:23:52.955Z,18.09
2023-04-14T12:26:25.750Z,18.08
2023-04-14T12:28:57.708Z,18.06
2023-04-14T12:31:32.122Z,18.09
2023-04-14T12:34:02.053Z,18.13
2023-04-14T12:36:48.111Z,18.16
2023-04-14T12:39:22.292Z,18.15
2023-04-14T12:41:50.691Z,18.13
2023-04-14T12:44:20.616Z,18.09
2023-04-14T12:46:50.588Z,18.01
2023-04-14T12:49:40.334Z,17.92
2023-04-14T12:52:08.866Z,17.86
2023-04-14T12:54:48.798Z,17.84
2023-04-14T12:57:22.062Z,17.82
2023-04-14T12:59:50.703Z,17.82
2023-04-14T13:02:19.175Z,17.80
2023-04-14T13:04:47.805Z,17.73
2023-04-14T13:07:16.109Z,17.65
2023-04-14T13:09:44.222Z,17.63
2023-04-14T13:12:13.033Z,17.64
2023-04-14T13:14:41.723Z,17.67
2023-04-14T13:17:10.594Z,17.72
2023-04-14T13:19:38.837Z,17.83
2023-04-14T13:22:09.390Z,17.94
2023-04-14T13:24:37.790Z,18.03
2023-04-14T13:27:07.332Z,18.09
2023-04-14T13:29:41.850Z,18.15
2023-04-14T13:32:11.253Z,18.22
2023-04-14T13:34:40.175Z,18.27
2023-04-14T13:37:10.117Z,18.31
2023-04-14T13:39:38.739Z,18.34
2023-04-14T13:42:06.851Z,18.34
2023-04-14T13:44:35.730Z,18.33
2023-04-14T13:47:04.120Z,18.34
2023-04-14T13:49:32.519Z,18.32
2023-04-14T13:52:00.646Z,18.28
2023-04-14T13:54:29.126Z,18.20
2023-04-14T13:56:57.497Z,18.15
2023-04-14T13:59:25.437Z,18.10
2023-04-14T14:01:54.809Z,18.08
2023-04-14T14:04:24.431Z,18.06
2023-04-14T14:06:52.962Z,18.04
2023-04-14T14:09:21.099Z,18.03
2023-04-14T14:11:49.233Z,18.04
2023-04-14T14:14:17.498Z,18.01
2023-04-14T14:16:46.145Z,17.98
2023-04-14T14:19:17.276Z,17.95
2023-04-14T14:21:47.272Z,17.92
2023-04-14T14:24:16.233Z,17.88
2023-04-14T14:26:44.837Z,17.88
2023-04-14T14:29:12.896Z,17.92
2023-04-14T14:31:41.254Z,17.94
2023-04-14T14:34:09.790Z,17.90
2023-04-14T14:36:37.912Z,17.84
2023-04-14T14:39:06.899Z,17.79
2023-04-14T14:41:36.128Z,17.76
2023-04-14T14:44:05.044Z,17.74
2023-04-14T14:46:36.437Z,17.73
2023-04-14T14:49:05.546Z,17.72
2023-04-14T14:51:33.990Z,17.68
2023-04-14T14:54:10.244Z,17.66
2023-04-14T14:56:39.201Z,17.64
2023-04-14T14:59:08.664Z,17.64
2023-04-14T15:01:37.114Z,17.62
2023-04-14T15:04:06.771Z,17.57
2023-04-14T15:06:36.587Z,17.46
2023-04-14T15:09:06.413Z,17.36
2023-04-14T15:11:38.701Z,17.28
2023-04-14T15:14:06.866Z,17.20
2023-04-14T15:16:35.143Z,17.15
2023-04-14T15:19:05.277Z,17.09
2023-04-14T15:21:34.296Z,17.06
2023-04-14T15:24:02.558Z,17.04
2023-04-14T15:26:32.383Z,17.04
2023-04-14T15:29:02.437Z,17.03
2023-04-14T15:31:31.103Z,16.98
2023-04-14T15:34:02.644Z,16.92
2023-04-14T15:36:33.972Z,16.85
2023-04-14T15:39:02.193Z,16.78
2023-04-14T15:41:30.708Z,16.73
2023-04-14T15:43:59.329Z,16.67
2023-04-14T15:46:27.897Z,16.62
2023-04-14T15:48:57.523Z,16.58
2023-04-14T15:51:26.037Z,16.55
2023-04-14T15:53:54.417Z,16.50
2023-04-14T15:56:25.961Z,16.44
2023-04-14T15:58:54.070Z,16.39
2023-04-14T16:01:22.350Z,16.34
2023-04-14T16:03:52.578Z,16.29
2023-04-14T16:06:21.551Z,16.22
2023-04-14T16:08:49.823Z,16.16
2023-04-14T16:11:18.009Z,16.08
2023-04-14T16:13:54.503Z,16.00
2023-04-14T16:16:23.195Z,15.93
2023-04-14T16:18:52.831Z,15.86
2023-04-14T16:21:24.389Z,15.78
2023-04-14T16:23:52.980Z,15.71
2023-04-14T16:26:21.068Z,15.65
2023-04-14T16:28:52.583Z,15.59
2023-04-14T16:31:21.883Z,15.52
2023-04-14T16:33:50.458Z,15.46
2023-04-14T16:36:19.351Z,15.41
2023-04-14T16:38:50.932Z,15.36
2023-04-14T16:41:19.234Z,15.32
2023-04-14T16:43:47.664Z,15.29
2023-04-14T16:46:16.807Z,15.25
2023-04-14T16:48:45.148Z,15.22
2023-04-14T16:51:14.970Z,15.19
2023-04-14T16:53:45.386Z,15.17
2023-04-14T16:56:13.613Z,15.14
2023-04-14T16:58:45.307Z,15.12
2023-04-14T17:01:13.759Z,15.08
2023-04-14T17:03:42.935Z,15.06
2023-04-14T17:06:11.221Z,15.03
2023-04-14T20:16:13.208Z,12.78
2023-04-14T20:19:02.446Z,12.74
2023-04-14T20:21:32.869Z,12.71
2023-04-14T20:24:01.806Z,12.68
2023-04-14T20:26:30.115Z,12.65
2023-04-14T20:28:58.778Z,12.61
2023-04-14T20:31:27.303Z,12.57
2023-04-14T20:33:56.324Z,12.55
2023-04-14T20:36:24.676Z,12.53
2023-04-14T20:38:53.074Z,12.51
2023-04-14T20:41:27.428Z,12.49
2023-04-14T20:43:55.821Z,12.47
2023-04-14T20:46:24.546Z,12.45
2023-04-14T20:48:53.713Z,12.44
2023-04-14T20:51:23.462Z,12.42
2023-04-14T20:53:51.385Z,12.39
2023-04-14T20:56:20.100Z,12.36
2023-04-14T20:58:49.248Z,12.35
2023-04-14T21:01:17.212Z,12.33
2023-04-14T21:03:46.756Z,12.31
2023-04-14T21:06:16.192Z,12.28
2023-04-14T21:08:45.119Z,12.26
2023-04-14T21:11:16.990Z,12.24
2023-04-14T21:15:30.496Z,12.23
2023-04-14T21:16:37.294Z,12.21
2023-04-14T21:19:06.719Z,12.20
2023-04-14T21:21:42.951Z,12.19
2023-04-14T21:24:11.934Z,12.17
2023-04-14T21:26:40.022Z,12.16
2023-04-14T21:29:14.455Z,12.15
2023-04-14T21:31:42.829Z,12.15
2023-04-14T21:34:11.042Z,12.13
2023-04-14T21:36:39.639Z,12.12
2023-04-14T21:39:08.436Z,12.09
2023-04-14T21:41:36.534Z,12.08
2023-04-14T21:44:06.144Z,12.07
2023-04-14T21:46:34.313Z,12.06
2023-04-14T21:49:03.886Z,12.06
2023-04-14T21:51:32.227Z,12.05
2023-04-14T21:54:01.948Z,12.03
2023-04-14T21:56:31.552Z,12.00
2023-04-14T21:59:00.204Z,11.98
2023-04-14T22:01:29.931Z,11.97
2023-04-14T22:04:00.418Z,11.96
2023-04-14T22:06:29.530Z,11.94
2023-04-14T22:09:01.864Z,11.92
2023-04-14T22:11:32.326Z,11.90
2023-04-14T22:14:02.928Z,11.88
2023-04-14T22:16:37.754Z,11.87
2023-04-14T22:19:09.078Z,11.86
2023-04-14T22:21:37.754Z,11.86
2023-04-14T22:24:06.002Z,11.86
2023-04-14T22:26:34.425Z,11.86
2023-04-14T22:29:02.722Z,11.87
2023-04-14T22:31:31.203Z,11.86
2023-04-14T22:33:59.311Z,11.85
2023-04-14T22:36:28.532Z,11.84
2023-04-14T22:38:56.480Z,11.85
2023-04-14T22:41:25.045Z,11.84
2023-04-14T22:43:53.445Z,11.84
2023-04-14T22:46:24.357Z,11.84
2023-04-14T22:48:52.483Z,11.83
2023-04-14T22:51:20.411Z,11.83
2023-04-14T22:53:49.258Z,11.82
2023-04-14T22:56:17.934Z,11.82
2023-04-14T22:58:45.840Z,11.81
2023-04-14T23:01:21.767Z,11.81
2023-04-14T23:03:52.845Z,11.81
2023-04-14T23:06:21.315Z,11.81
2023-04-14T23:08:51.108Z,11.81
2023-04-14T23:14:38.891Z,11.82
2023-04-14T23:17:08.364Z,11.79
2023-04-14T23:19:36.668Z,11.76
2023-04-14T23:22:05.114Z,11.72
2023-04-14T23:24:33.303Z,11.69
2023-04-14T23:27:01.926Z,11.64
2023-04-14T23:29:30.984Z,11.60
2023-04-14T23:31:59.505Z,11.54
2023-04-14T23:34:28.696Z,11.50
2023-04-14T23:36:58.415Z,11.44
2023-04-14T23:39:26.909Z,11.38
2023-04-14T23:41:55.188Z,11.32
2023-04-14T23:44:24.504Z,11.26
2023-04-14T23:46:52.502Z,11.22
2023-04-14T23:49:24.022Z,11.18
2023-04-14T23:52:01.302Z,11.14
2023-04-14T23:54:31.133Z,11.09
2023-04-14T23:57:01.882Z,11.04
2023-04-14T23:59:31.268Z,10.98
